sensor_id;sensor_type;location;lat;lon;timestamp;P1;durP1;ratioP1;P2;durP2;ratioP2
40849;SDS011;26571;41.610;25.380;2024-02-28T13:14:50;6.35;;;1.50;;
40849;SDS011;26571;41.610;25.380;2024-02-28T13:17:16;1.73;;;1.60;;
40849;SDS011;26571;41.610;25.380;2024-02-28T13:19:42;3.60;;;1.57;;
40849;SDS011;26571;41.610;25.380;2024-02-28T13:22:08;5.13;;;2.35;;
40849;SDS011;26571;41.610;25.380;2024-02-28T13:24:33;7.57;;;1.52;;
40849;SDS011;26571;41.610;25.380;2024-02-28T13:27:00;3.22;;;2.05;;
40849;SDS011;26571;41.610;25.380;2024-02-28T13:29:26;3.08;;;1.52;;
40849;SDS011;26571;41.610;25.380;2024-02-28T13:31:52;7.07;;;2.03;;
40849;SDS011;26571;41.610;25.380;2024-02-28T13:34:17;2.13;;;1.70;;
40849;SDS011;26571;41.610;25.380;2024-02-28T13:36:43;4.32;;;1.95;;
40849;SDS011;26571;41.610;25.380;2024-02-28T13:39:11;7.43;;;1.92;;
40849;SDS011;26571;41.610;25.380;2024-02-28T13:41:37;3.50;;;1.50;;
40849;SDS011;26571;41.610;25.380;2024-02-28T13:44:04;7.78;;;2.72;;
40849;SDS011;26571;41.610;25.380;2024-02-28T13:46:29;4.75;;;1.88;;
40849;SDS011;26571;41.610;25.380;2024-02-28T13:48:55;2.30;;;1.52;;
40849;SDS011;26571;41.610;25.380;2024-02-28T13:51:21;5.20;;;2.78;;
40849;SDS011;26571;41.610;25.380;2024-02-28T13:53:46;5.32;;;1.90;;
40849;SDS011;26571;41.610;25.380;2024-02-28T13:56:12;8.43;;;1.77;;
40849;SDS011;26571;41.610;25.380;2024-02-28T13:58:37;3.35;;;1.58;;
40849;SDS011;26571;41.610;25.380;2024-02-28T14:01:03;8.38;;;3.20;;
40849;SDS011;26571;41.610;25.380;2024-02-28T14:03:31;5.97;;;3.78;;
40849;SDS011;26571;41.610;25.380;2024-02-28T14:05:57;9.38;;;3.42;;
40849;SDS011;26571;41.610;25.380;2024-02-28T14:08:22;8.10;;;5.78;;
40849;SDS011;26571;41.610;25.380;2024-02-28T14:10:48;6.10;;;2.30;;
40849;SDS011;26571;41.610;25.380;2024-02-28T14:13:13;1.48;;;1.38;;
40849;SDS011;26571;41.610;25.380;2024-02-28T14:15:40;3.45;;;2.28;;
40849;SDS011;26571;41.610;25.380;2024-02-28T14:18:06;2.58;;;1.70;;
40849;SDS011;26571;41.610;25.380;2024-02-28T14:20:31;6.22;;;1.92;;
40849;SDS011;26571;41.610;25.380;2024-02-28T14:22:57;5.57;;;2.33;;
40849;SDS011;26571;41.610;25.380;2024-02-28T14:25:23;2.65;;;1.67;;
40849;SDS011;26571;41.610;25.380;2024-02-28T14:27:49;2.33;;;1.50;;
40849;SDS011;26571;41.610;25.380;2024-02-28T14:30:14;4.38;;;2.35;;
40849;SDS011;26571;41.610;25.380;2024-02-28T14:32:40;7.00;;;1.70;;
40849;SDS011;26571;41.610;25.380;2024-02-28T14:35:07;3.00;;;1.63;;
40849;SDS011;26571;41.610;25.380;2024-02-28T14:37:37;5.30;;;1.27;;
40849;SDS011;26571;41.610;25.380;2024-02-28T14:40:06;3.53;;;1.45;;
40849;SDS011;26571;41.610;25.380;2024-02-28T14:45:09;5.15;;;1.88;;
40849;SDS011;26571;41.610;25.380;2024-02-28T14:47:36;2.40;;;1.48;;
40849;SDS011;26571;41.610;25.380;2024-02-28T14:50:04;3.70;;;2.10;;
40849;SDS011;26571;41.610;25.380;2024-02-28T14:52:33;9.30;;;2.45;;
40849;SDS011;26571;41.610;25.380;2024-02-28T14:54:58;6.50;;;2.10;;
40849;SDS011;26571;41.610;25.380;2024-02-28T14:57:24;2.40;;;1.35;;
40849;SDS011;26571;41.610;25.380;2024-02-28T14:59:49;6.88;;;1.75;;
40849;SDS011;26571;41.610;25.380;2024-02-28T15:02:15;4.70;;;3.25;;
40849;SDS011;26571;41.610;25.380;2024-02-28T15:04:40;8.68;;;4.03;;
40849;SDS011;26571;41.610;25.380;2024-02-28T15:07:06;4.22;;;3.30;;
40849;SDS011;26571;41.610;25.380;2024-02-28T15:09:31;6.25;;;5.07;;
40849;SDS011;26571;41.610;25.380;2024-02-28T15:11:58;7.97;;;4.30;;
40849;SDS011;26571;41.610;25.380;2024-02-28T15:14:24;8.05;;;2.97;;
40849;SDS011;26571;41.610;25.380;2024-02-28T15:16:50;7.78;;;5.85;;
40849;SDS011;26571;41.610;25.380;2024-02-28T15:19:17;4.30;;;2.67;;
40849;SDS011;26571;41.610;25.380;2024-02-28T15:21:46;25.73;;;15.57;;
40849;SDS011;26571;41.610;25.380;2024-02-28T15:24:11;8.90;;;6.53;;
40849;SDS011;26571;41.610;25.380;2024-02-28T15:26:37;3.95;;;2.60;;
40849;SDS011;26571;41.610;25.380;2024-02-28T15:29:03;6.47;;;3.05;;
40849;SDS011;26571;41.610;25.380;2024-02-28T15:31:28;2.53;;;1.10;;
40849;SDS011;26571;41.610;25.380;2024-02-28T15:33:54;5.00;;;1.80;;
40849;SDS011;26571;41.610;25.380;2024-02-28T15:36:19;7.93;;;2.55;;
40849;SDS011;26571;41.610;25.380;2024-02-28T15:38:45;3.90;;;2.03;;
40849;SDS011;26571;41.610;25.380;2024-02-28T15:41:10;4.68;;;2.50;;
40849;SDS011;26571;41.610;25.380;2024-02-28T15:43:36;4.13;;;2.47;;
40849;SDS011;26571;41.610;25.380;2024-02-28T15:46:01;5.20;;;3.47;;
40849;SDS011;26571;41.610;25.380;2024-02-28T15:48:27;3.08;;;2.88;;
40849;SDS011;26571;41.610;25.380;2024-02-28T15:50:53;7.78;;;5.57;;
40849;SDS011;26571;41.610;25.380;2024-02-28T15:53:20;34.05;;;19.83;;
40849;SDS011;26571;41.610;25.380;2024-02-28T15:55:45;34.88;;;18.02;;
40849;SDS011;26571;41.610;25.380;2024-02-28T15:58:11;24.83;;;14.93;;
40849;SDS011;26571;41.610;25.380;2024-02-28T16:00:36;36.70;;;24.42;;
40849;SDS011;26571;41.610;25.380;2024-02-28T16:03:02;22.45;;;13.65;;
40849;SDS011;26571;41.610;25.380;2024-02-28T16:05:28;13.93;;;8.03;;
40849;SDS011;26571;41.610;25.380;2024-02-28T16:07:54;27.15;;;11.57;;
40849;SDS011;26571;41.610;25.380;2024-02-28T16:10:21;17.50;;;10.63;;
40849;SDS011;26571;41.610;25.380;2024-02-28T16:12:47;22.10;;;13.10;;
40849;SDS011;26571;41.610;25.380;2024-02-28T16:15:13;28.15;;;16.50;;
40849;SDS011;26571;41.610;25.380;2024-02-28T16:17:39;33.35;;;17.80;;
40849;SDS011;26571;41.610;25.380;2024-02-28T16:20:05;19.90;;;15.50;;
40849;SDS011;26571;41.610;25.380;2024-02-28T16:22:31;13.25;;;9.82;;
40849;SDS011;26571;41.610;25.380;2024-02-28T16:24:57;35.78;;;26.95;;
40849;SDS011;26571;41.610;25.380;2024-02-28T16:27:23;46.97;;;35.10;;
40849;SDS011;26571;41.610;25.380;2024-02-28T16:29:48;33.13;;;24.10;;
40849;SDS011;26571;41.610;25.380;2024-02-28T16:32:14;26.98;;;20.90;;
40849;SDS011;26571;41.610;25.380;2024-02-28T16:34:39;24.05;;;18.63;;
40849;SDS011;26571;41.610;25.380;2024-02-28T16:37:05;33.90;;;22.50;;
40849;SDS011;26571;41.610;25.380;2024-02-28T16:39:32;27.27;;;19.35;;
40849;SDS011;26571;41.610;25.380;2024-02-28T16:41:58;33.17;;;25.90;;
40849;SDS011;26571;41.610;25.380;2024-02-28T16:44:24;20.35;;;14.30;;
40849;SDS011;26571;41.610;25.380;2024-02-28T16:46:50;19.73;;;16.35;;
40849;SDS011;26571;41.610;25.380;2024-02-28T16:49:15;23.88;;;18.52;;
40849;SDS011;26571;41.610;25.380;2024-02-28T16:51:44;28.27;;;18.83;;
40849;SDS011;26571;41.610;25.380;2024-02-28T16:54:10;21.23;;;17.05;;
40849;SDS011;26571;41.610;25.380;2024-02-28T16:56:37;31.30;;;18.25;;
40849;SDS011;26571;41.610;25.380;2024-02-28T16:59:03;24.42;;;18.42;;
40849;SDS011;26571;41.610;25.380;2024-02-28T17:01:28;16.13;;;12.70;;
40849;SDS011;26571;41.610;25.380;2024-02-28T17:03:54;16.92;;;11.57;;
40849;SDS011;26571;41.610;25.380;2024-02-28T17:06:20;13.85;;;11.90;;
40849;SDS011;26571;41.610;25.380;2024-02-28T17:08:46;24.85;;;13.80;;
40849;SDS011;26571;41.610;25.380;2024-02-28T17:11:12;21.25;;;10.98;;
40849;SDS011;26571;41.610;25.380;2024-02-28T17:13:38;16.93;;;13.03;;
40849;SDS011;26571;41.610;25.380;2024-02-28T17:16:04;19.42;;;14.07;;
40849;SDS011;26571;41.610;25.380;2024-02-28T17:18:30;23.83;;;19.63;;
40849;SDS011;26571;41.610;25.380;2024-02-28T17:20:56;23.20;;;18.55;;
40849;SDS011;26571;41.610;25.380;2024-02-28T17:23:22;23.00;;;16.50;;
40849;SDS011;26571;41.610;25.380;2024-02-28T17:25:51;14.50;;;10.05;;
40849;SDS011;26571;41.610;25.380;2024-02-28T17:28:17;12.70;;;9.48;;
40849;SDS011;26571;41.610;25.380;2024-02-28T17:30:43;11.95;;;9.40;;
40849;SDS011;26571;41.610;25.380;2024-02-28T17:33:08;10.43;;;6.57;;
40849;SDS011;26571;41.610;25.380;2024-02-28T17:35:34;8.63;;;7.05;;
40849;SDS011;26571;41.610;25.380;2024-02-28T17:37:59;5.25;;;4.53;;
40849;SDS011;26571;41.610;25.380;2024-02-28T17:40:25;7.78;;;4.97;;
40849;SDS011;26571;41.610;25.380;2024-02-28T17:42:52;22.42;;;13.57;;
40849;SDS011;26571;41.610;25.380;2024-02-28T17:45:17;20.15;;;13.45;;
40849;SDS011;26571;41.610;25.380;2024-02-28T17:47:45;43.90;;;22.63;;
40849;SDS011;26571;41.610;25.380;2024-02-28T17:50:11;29.83;;;18.50;;
40849;SDS011;26571;41.610;25.380;2024-02-28T17:52:37;39.45;;;21.65;;
40849;SDS011;26571;41.610;25.380;2024-02-28T17:55:04;19.17;;;14.40;;
40849;SDS011;26571;41.610;25.380;2024-02-28T17:57:31;20.27;;;16.25;;
40849;SDS011;26571;41.610;25.380;2024-02-28T18:00:00;17.90;;;12.30;;
40849;SDS011;26571;41.610;25.380;2024-02-28T18:02:37;13.40;;;9.07;;
40849;SDS011;26571;41.610;25.380;2024-02-28T18:05:04;11.30;;;8.02;;
40849;SDS011;26571;41.610;25.380;2024-02-28T18:07:30;10.15;;;6.80;;
40849;SDS011;26571;41.610;25.380;2024-02-28T18:09:56;9.48;;;6.10;;
40849;SDS011;26571;41.610;25.380;2024-02-28T18:12:21;8.85;;;6.28;;
40849;SDS011;26571;41.610;25.380;2024-02-28T18:14:47;13.38;;;7.38;;
40849;SDS011;26571;41.610;25.380;2024-02-28T18:17:12;9.82;;;6.43;;
40849;SDS011;26571;41.610;25.380;2024-02-28T18:19:38;21.33;;;12.35;;
40849;SDS011;26571;41.610;25.380;2024-02-28T18:22:04;9.82;;;8.35;;
40849;SDS011;26571;41.610;25.380;2024-02-28T18:24:33;11.88;;;9.15;;
40849;SDS011;26571;41.610;25.380;2024-02-28T18:26:59;15.27;;;9.40;;
40849;SDS011;26571;41.610;25.380;2024-02-28T18:29:25;14.55;;;9.63;;
40849;SDS011;26571;41.610;25.380;2024-02-28T18:31:50;12.45;;;7.85;;
40849;SDS011;26571;41.610;25.380;2024-02-28T18:34:16;16.25;;;10.60;;
40849;SDS011;26571;41.610;25.380;2024-02-28T18:36:44;13.43;;;8.70;;
40849;SDS011;26571;41.610;25.380;2024-02-28T18:39:11;8.75;;;6.32;;
40849;SDS011;26571;41.610;25.380;2024-02-28T18:41:37;7.57;;;6.28;;
40849;SDS011;26571;41.610;25.380;2024-02-28T18:44:03;12.63;;;7.32;;
40849;SDS011;26571;41.610;25.380;2024-02-28T18:46:30;13.18;;;7.43;;
40849;SDS011;26571;41.610;25.380;2024-02-28T18:48:56;13.15;;;9.82;;
40849;SDS011;26571;41.610;25.380;2024-02-28T18:51:22;14.88;;;11.35;;
40849;SDS011;26571;41.610;25.380;2024-02-28T18:53:47;17.10;;;11.60;;
40849;SDS011;26571;41.610;25.380;2024-02-28T18:56:13;15.30;;;11.73;;
40849;SDS011;26571;41.610;25.380;2024-02-28T18:58:38;14.55;;;9.68;;
40849;SDS011;26571;41.610;25.380;2024-02-28T19:01:05;14.38;;;10.02;;
40849;SDS011;26571;41.610;25.380;2024-02-28T19:03:30;15.38;;;11.25;;
40849;SDS011;26571;41.610;25.380;2024-02-28T19:05:57;16.88;;;12.23;;
40849;SDS011;26571;41.610;25.380;2024-02-28T19:08:23;18.15;;;12.18;;
40849;SDS011;26571;41.610;25.380;2024-02-28T19:10:48;15.02;;;11.43;;
40849;SDS011;26571;41.610;25.380;2024-02-28T19:13:14;13.88;;;10.82;;
40849;SDS011;26571;41.610;25.380;2024-02-28T19:15:42;13.73;;;10.15;;
40849;SDS011;26571;41.610;25.380;2024-02-28T19:18:11;14.55;;;10.82;;
40849;SDS011;26571;41.610;25.380;2024-02-28T19:20:36;14.48;;;10.55;;
40849;SDS011;26571;41.610;25.380;2024-02-28T19:23:02;17.27;;;11.88;;
40849;SDS011;26571;41.610;25.380;2024-02-28T19:25:28;15.90;;;11.38;;
40849;SDS011;26571;41.610;25.380;2024-02-28T19:27:53;16.80;;;10.10;;
40849;SDS011;26571;41.610;25.380;2024-02-28T19:30:19;20.35;;;11.65;;
40849;SDS011;26571;41.610;25.380;2024-02-28T19:32:45;17.65;;;11.18;;
40849;SDS011;26571;41.610;25.380;2024-02-28T19:35:11;11.70;;;10.47;;
40849;SDS011;26571;41.610;25.380;2024-02-28T19:37:37;19.58;;;11.00;;
40849;SDS011;26571;41.610;25.380;2024-02-28T19:40:03;16.40;;;11.43;;
40849;SDS011;26571;41.610;25.380;2024-02-28T19:42:35;16.45;;;10.20;;
40849;SDS011;26571;41.610;25.380;2024-02-28T19:45:02;13.60;;;8.93;;
40849;SDS011;26571;41.610;25.380;2024-02-28T19:47:29;17.27;;;11.18;;
40849;SDS011;26571;41.610;25.380;2024-02-28T19:49:55;16.63;;;10.45;;
40849;SDS011;26571;41.610;25.380;2024-02-28T19:52:24;15.43;;;11.95;;
40849;SDS011;26571;41.610;25.380;2024-02-28T19:54:50;17.48;;;12.55;;
40849;SDS011;26571;41.610;25.380;2024-02-28T19:57:19;25.02;;;14.40;;
40849;SDS011;26571;41.610;25.380;2024-02-28T19:59:45;22.58;;;15.93;;
40849;SDS011;26571;41.610;25.380;2024-02-28T20:02:11;18.57;;;13.87;;
40849;SDS011;26571;41.610;25.380;2024-02-28T20:04:37;17.10;;;14.40;;
40849;SDS011;26571;41.610;25.380;2024-02-28T20:07:02;17.48;;;12.95;;
40849;SDS011;26571;41.610;25.380;2024-02-28T20:09:28;15.05;;;13.25;;
40849;SDS011;26571;41.610;25.380;2024-02-28T20:12:00;17.65;;;11.15;;
40849;SDS011;26571;41.610;25.380;2024-02-28T20:14:26;20.20;;;12.70;;
40849;SDS011;26571;41.610;25.380;2024-02-28T20:16:52;13.38;;;10.85;;
40849;SDS011;26571;41.610;25.380;2024-02-28T20:19:18;12.77;;;10.40;;
40849;SDS011;26571;41.610;25.380;2024-02-28T20:21:44;8.75;;;7.93;;
40849;SDS011;26571;41.610;25.380;2024-02-28T20:24:10;9.37;;;8.40;;
40849;SDS011;26571;41.610;25.380;2024-02-28T20:26:35;11.15;;;7.63;;
40849;SDS011;26571;41.610;25.380;2024-02-28T20:29:01;12.65;;;10.05;;
40849;SDS011;26571;41.610;25.380;2024-02-28T20:31:26;9.68;;;7.68;;
40849;SDS011;26571;41.610;25.380;2024-02-28T20:33:52;15.43;;;8.27;;
40849;SDS011;26571;41.610;25.380;2024-02-28T20:36:18;13.43;;;9.55;;
40849;SDS011;26571;41.610;25.380;2024-02-28T20:38:43;37.35;;;17.55;;
40849;SDS011;26571;41.610;25.380;2024-02-28T20:41:09;15.43;;;9.60;;
40849;SDS011;26571;41.610;25.380;2024-02-28T20:43:35;14.93;;;9.40;;
40849;SDS011;26571;41.610;25.380;2024-02-28T20:46:00;9.52;;;7.47;;
40849;SDS011;26571;41.610;25.380;2024-02-28T20:48:26;13.00;;;7.10;;
40849;SDS011;26571;41.610;25.380;2024-02-28T20:50:52;16.13;;;9.70;;
40849;SDS011;26571;41.610;25.380;2024-02-28T20:53:18;18.70;;;14.07;;
40849;SDS011;26571;41.610;25.380;2024-02-28T20:55:45;14.13;;;9.93;;
40849;SDS011;26571;41.610;25.380;2024-02-28T20:58:11;11.90;;;6.97;;
40849;SDS011;26571;41.610;25.380;2024-02-28T21:00:37;11.13;;;7.30;;
40849;SDS011;26571;41.610;25.380;2024-02-28T21:03:02;7.63;;;6.93;;
40849;SDS011;26571;41.610;25.380;2024-02-28T21:05:28;11.43;;;7.07;;
40849;SDS011;26571;41.610;25.380;2024-02-28T21:07:54;10.07;;;7.43;;
40849;SDS011;26571;41.610;25.380;2024-02-28T21:10:23;8.20;;;7.00;;
40849;SDS011;26571;41.610;25.380;2024-02-28T21:12:49;9.32;;;6.30;;
40849;SDS011;26571;41.610;25.380;2024-02-28T21:15:14;10.45;;;8.13;;
40849;SDS011;26571;41.610;25.380;2024-02-28T21:17:40;11.27;;;6.25;;
40849;SDS011;26571;41.610;25.380;2024-02-28T21:20:06;11.57;;;6.47;;
40849;SDS011;26571;41.610;25.380;2024-02-28T21:22:32;9.20;;;6.82;;
40849;SDS011;26571;41.610;25.380;2024-02-28T21:24:58;11.10;;;6.93;;
40849;SDS011;26571;41.610;25.380;2024-02-28T21:27:24;12.93;;;7.53;;
40849;SDS011;26571;41.610;25.380;2024-02-28T21:29:49;9.38;;;7.38;;
40849;SDS011;26571;41.610;25.380;2024-02-28T21:32:17;11.10;;;7.53;;
40849;SDS011;26571;41.610;25.380;2024-02-28T21:34:43;9.38;;;6.13;;
40849;SDS011;26571;41.610;25.380;2024-02-28T21:37:09;14.90;;;7.30;;
40849;SDS011;26571;41.610;25.380;2024-02-28T21:39:34;13.25;;;6.47;;
40849;SDS011;26571;41.610;25.380;2024-02-28T21:41:59;8.35;;;6.50;;
40849;SDS011;26571;41.610;25.380;2024-02-28T21:44:25;11.25;;;7.53;;
40849;SDS011;26571;41.610;25.380;2024-02-28T21:46:53;9.05;;;6.47;;
40849;SDS011;26571;41.610;25.380;2024-02-28T21:49:19;11.38;;;7.57;;
40849;SDS011;26571;41.610;25.380;2024-02-28T21:51:44;14.82;;;7.30;;
40849;SDS011;26571;41.610;25.380;2024-02-28T21:54:10;13.65;;;6.22;;
40849;SDS011;26571;41.610;25.380;2024-02-28T21:56:35;9.18;;;6.70;;
40849;SDS011;26571;41.610;25.380;2024-02-28T21:59:03;6.88;;;6.25;;
40849;SDS011;26571;41.610;25.380;2024-02-28T22:01:28;15.68;;;7.13;;
40849;SDS011;26571;41.610;25.380;2024-02-28T22:03:54;7.95;;;5.88;;
40849;SDS011;26571;41.610;25.380;2024-02-28T22:06:20;10.82;;;6.68;;
40849;SDS011;26571;41.610;25.380;2024-02-28T22:08:45;7.20;;;5.82;;
40849;SDS011;26571;41.610;25.380;2024-02-28T22:11:11;6.53;;;6.00;;
40849;SDS011;26571;41.610;25.380;2024-02-28T22:13:36;9.27;;;7.43;;
40849;SDS011;26571;41.610;25.380;2024-02-28T22:16:02;8.88;;;6.75;;
40849;SDS011;26571;41.610;25.380;2024-02-28T22:18:27;12.48;;;7.93;;
40849;SDS011;26571;41.610;25.380;2024-02-28T22:20:53;7.30;;;6.70;;
40849;SDS011;26571;41.610;25.380;2024-02-28T22:23:18;11.55;;;7.72;;
40849;SDS011;26571;41.610;25.380;2024-02-28T22:25:44;9.43;;;7.15;;
40849;SDS011;26571;41.610;25.380;2024-02-28T22:28:09;10.48;;;6.57;;
40849;SDS011;26571;41.610;25.380;2024-02-28T22:30:35;9.32;;;6.50;;
40849;SDS011;26571;41.610;25.380;2024-02-28T22:33:01;8.63;;;6.82;;
40849;SDS011;26571;41.610;25.380;2024-02-28T22:35:26;7.43;;;6.53;;
40849;SDS011;26571;41.610;25.380;2024-02-28T22:37:52;14.05;;;6.82;;
40849;SDS011;26571;41.610;25.380;2024-02-28T22:40:17;7.07;;;6.22;;
40849;SDS011;26571;41.610;25.380;2024-02-28T22:42:43;16.35;;;6.78;;
40849;SDS011;26571;41.610;25.380;2024-02-28T22:45:08;11.13;;;5.82;;
40849;SDS011;26571;41.610;25.380;2024-02-28T22:47:35;8.93;;;6.70;;
40849;SDS011;26571;41.610;25.380;2024-02-28T22:50:01;10.73;;;7.03;;
40849;SDS011;26571;41.610;25.380;2024-02-28T22:52:27;7.10;;;6.25;;
40849;SDS011;26571;41.610;25.380;2024-02-28T22:54:52;9.40;;;5.78;;
40849;SDS011;26571;41.610;25.380;2024-02-28T22:57:18;13.30;;;5.85;;
40849;SDS011;26571;41.610;25.380;2024-02-28T22:59:44;11.40;;;6.53;;
40849;SDS011;26571;41.610;25.380;2024-02-28T23:02:10;11.07;;;7.38;;
40849;SDS011;26571;41.610;25.380;2024-02-28T23:04:35;7.20;;;6.53;;
40849;SDS011;26571;41.610;25.380;2024-02-28T23:07:01;9.10;;;7.72;;
40849;SDS011;26571;41.610;25.380;2024-02-28T23:09:27;11.23;;;6.70;;
40849;SDS011;26571;41.610;25.380;2024-02-28T23:11:52;7.85;;;7.05;;
40849;SDS011;26571;41.610;25.380;2024-02-28T23:14:18;9.25;;;6.63;;
40849;SDS011;26571;41.610;25.380;2024-02-28T23:16:45;6.68;;;5.20;;
40849;SDS011;26571;41.610;25.380;2024-02-28T23:19:10;8.40;;;6.32;;
40849;SDS011;26571;41.610;25.380;2024-02-28T23:21:37;9.57;;;6.65;;
40849;SDS011;26571;41.610;25.380;2024-02-28T23:24:06;7.20;;;6.38;;
40849;SDS011;26571;41.610;25.380;2024-02-28T23:26:32;6.93;;;6.05;;
40849;SDS011;26571;41.610;25.380;2024-02-28T23:28:58;7.88;;;7.13;;
40849;SDS011;26571;41.610;25.380;2024-02-28T23:31:25;6.53;;;6.03;;
40849;SDS011;26571;41.610;25.380;2024-02-28T23:33:51;12.10;;;7.20;;
40849;SDS011;26571;41.610;25.380;2024-02-28T23:36:16;7.40;;;6.57;;
40849;SDS011;26571;41.610;25.380;2024-02-28T23:41:09;11.50;;;7.28;;
40849;SDS011;26571;41.610;25.380;2024-02-28T23:43:35;7.97;;;6.13;;
40849;SDS011;26571;41.610;25.380;2024-02-28T23:46:00;7.32;;;6.15;;
40849;SDS011;26571;41.610;25.380;2024-02-28T23:48:26;5.95;;;5.07;;
40849;SDS011;26571;41.610;25.380;2024-02-28T23:50:51;16.35;;;5.97;;
40849;SDS011;26571;41.610;25.380;2024-02-28T23:53:18;9.55;;;6.65;;
40849;SDS011;26571;41.610;25.380;2024-02-28T23:55:44;9.68;;;8.30;;
40849;SDS011;26571;41.610;25.380;2024-02-28T23:58:10;8.38;;;7.68;;
